Time;durP1;ratioP1;P1;durP2;ratioP2;P2;SDS_P1;SDS_P2;PMS_P1;PMS_P2;Temp;Humidity;BMP_temperature;BMP_pressure;BME280_temperature;BME280_humidity;BME280_pressure;Samples;Min_cycle;Max_cycle;Signal;HPM_P1;HPM_P2
2022/03/09 00:01:37;;;;;;;10.93;4.53;;;3.00;99.90;;;;;;5060327;28;20468;-69
2022/03/09 00:04:04;;;;;;;8.93;5.53;;;3.10;99.90;;;;;;5059599;28;20692;-69
2022/03/09 00:06:31;;;;;;;10.40;5.13;;;3.10;99.90;;;;;;5059839;28;20487;-69
2022/03/09 00:08:59;;;;;;;11.43;6.33;;;3.10;99.90;;;;;;5063362;28;20534;-69
2022/03/09 00:11:26;;;;;;;9.07;4.37;;;3.00;99.90;;;;;;5063332;28;22346;-70
2022/03/09 00:13:53;;;;;;;8.47;6.07;;;3.00;99.90;;;;;;5068822;28;20457;-70
2022/03/09 00:16:20;;;;;;;8.80;4.80;;;2.90;99.90;;;;;;5072095;28;20458;-70
2022/03/09 00:18:46;;;;;;;8.00;4.47;;;3.00;99.90;;;;;;5080722;28;20477;-69
2022/03/09 00:21:13;;;;;;;14.50;4.83;;;3.00;99.90;;;;;;5074508;28;20508;-70
2022/03/09 00:23:40;;;;;;;4.67;3.10;;;3.00;99.90;;;;;;5074667;28;20431;-70
2022/03/09 00:26:08;;;;;;;8.17;4.67;;;2.90;99.90;;;;;;5072575;28;20485;-68
2022/03/09 00:28:35;;;;;;;9.17;5.20;;;2.90;99.90;;;;;;5068980;28;20481;-69
2022/03/09 00:31:01;;;;;;;7.50;3.80;;;2.80;99.90;;;;;;5078029;28;20477;-68
2022/03/09 00:33:28;;;;;;;9.30;5.43;;;2.80;99.90;;;;;;5075937;28;20456;-68
2022/03/09 00:35:55;;;;;;;5.30;3.60;;;2.90;99.90;;;;;;5069652;28;20854;-68
2022/03/09 00:38:21;;;;;;;11.37;6.77;;;2.80;99.90;;;;;;5056119;28;20552;-68
2022/03/09 00:40:50;;;;;;;5.50;4.20;;;2.80;99.90;;;;;;5063893;28;20440;-69
2022/03/09 00:43:18;;;;;;;9.67;5.90;;;2.60;99.90;;;;;;5059489;28;20439;-68
2022/03/09 00:45:46;;;;;;;10.70;4.73;;;2.60;99.90;;;;;;5062791;28;24761;-68
2022/03/09 00:48:13;;;;;;;6.43;5.00;;;2.20;99.90;;;;;;5063090;28;20451;-68
2022/03/09 00:50:40;;;;;;;8.73;3.40;;;2.30;99.90;;;;;;5064575;28;20526;-68
2022/03/09 00:53:07;;;;;;;6.30;5.20;;;2.40;99.90;;;;;;5066660;28;20461;-68
2022/03/09 00:55:34;;;;;;;8.27;4.87;;;2.40;99.90;;;;;;5054019;28;20452;-68
2022/03/09 00:58:00;;;;;;;8.83;3.80;;;2.50;99.90;;;;;;5055821;28;20485;-68
2022/03/09 01:00:28;;;;;;;4.87;3.90;;;2.50;99.90;;;;;;5056857;28;20584;-68
2022/03/09 01:02:57;;;;;;;4.00;3.30;;;2.40;99.90;;;;;;5065531;28;20458;-67
2022/03/09 01:05:24;;;;;;;5.93;4.67;;;2.60;99.90;;;;;;5063364;28;20643;-68
2022/03/09 01:07:51;;;;;;;14.40;4.40;;;2.60;99.90;;;;;;5063259;27;20541;-68
2022/03/09 01:10:18;;;;;;;6.77;4.70;;;2.60;99.90;;;;;;5065436;28;20968;-70
2022/03/09 01:12:45;;;;;;;8.57;5.57;;;2.40;99.90;;;;;;5063631;27;20968;-69
2022/03/09 01:15:12;;;;;;;10.90;5.10;;;2.40;99.90;;;;;;5064200;27;20919;-69
2022/03/09 01:17:40;;;;;;;7.40;3.40;;;2.10;99.90;;;;;;5063318;28;20618;-69
2022/03/09 01:20:08;;;;;;;7.13;4.60;;;2.10;99.90;;;;;;5061627;28;20456;-69
2022/03/09 01:22:35;;;;;;;5.00;3.80;;;2.20;99.90;;;;;;5065510;28;20457;-68
2022/03/09 01:25:02;;;;;;;6.47;3.77;;;2.20;99.90;;;;;;5069899;28;20606;-69
2022/03/09 01:27:28;;;;;;;7.00;4.27;;;2.30;99.90;;;;;;5073881;28;20912;-69
2022/03/09 01:29:55;;;;;;;7.77;5.30;;;2.20;99.90;;;;;;5069515;28;20457;-69
2022/03/09 01:32:22;;;;;;;12.00;4.33;;;2.10;99.90;;;;;;5068808;28;20435;-69
2022/03/09 01:34:50;;;;;;;9.93;4.67;;;2.10;99.90;;;;;;5070237;28;20774;-68
2022/03/09 01:37:17;;;;;;;11.93;5.13;;;2.20;99.90;;;;;;5063100;27;20528;-68
2022/03/09 01:39:44;;;;;;;7.87;4.60;;;2.30;99.90;;;;;;5061798;28;20464;-66
2022/03/09 01:42:11;;;;;;;7.20;4.27;;;2.20;99.90;;;;;;5060010;28;20508;-66
2022/03/09 01:44:37;;;;;;;4.20;3.37;;;2.20;99.90;;;;;;5062343;28;20657;-65
2022/03/09 01:47:05;;;;;;;7.43;3.30;;;2.20;99.90;;;;;;5064573;28;21895;-67
2022/03/09 01:49:32;;;;;;;8.13;3.60;;;2.20;99.90;;;;;;5063307;28;20549;-67
2022/03/09 01:52:01;;;;;;;10.43;4.23;;;2.00;99.90;;;;;;5059937;28;21312;-66
2022/03/09 01:54:29;;;;;;;6.17;4.43;;;2.00;99.90;;;;;;5060014;28;20937;-66
2022/03/09 01:56:56;;;;;;;8.93;6.03;;;1.90;99.90;;;;;;5063837;28;22203;-66
2022/03/09 01:59:23;;;;;;;4.50;3.80;;;1.90;99.90;;;;;;5059293;28;20519;-68
2022/03/09 02:01:50;;;;;;;7.73;4.00;;;2.00;99.90;;;;;;5059120;28;20443;-68
2022/03/09 02:04:17;;;;;;;9.93;5.43;;;1.90;99.90;;;;;;5062356;28;20509;-68
2022/03/09 02:06:44;;;;;;;6.07;4.10;;;1.90;99.90;;;;;;5068281;28;20837;-68
2022/03/09 02:11:58;;;;;;;7.77;4.10;;;1.80;99.90;;;;;;5058521;28;20461;-68
2022/03/09 02:14:32;;;;;;;6.23;3.43;;;1.70;99.90;;;;;;5064613;28;21646;-68
2022/03/09 02:17:00;;;;;;;8.67;3.67;;;1.80;99.90;;;;;;5061306;28;20481;-68
2022/03/09 02:19:27;;;;;;;4.83;3.83;;;1.80;99.90;;;;;;5059623;28;20486;-69
2022/03/09 02:21:59;;;;;;;7.70;4.73;;;1.70;99.90;;;;;;5062606;28;20665;-68
2022/03/09 02:24:28;;;;;;;3.23;2.53;;;1.70;99.90;;;;;;5055978;28;20554;-68
2022/03/09 02:26:54;;;;;;;12.93;4.50;;;1.80;99.90;;;;;;5065375;28;20472;-68
2022/03/09 02:29:21;;;;;;;5.40;2.50;;;1.60;99.90;;;;;;5064579;28;20461;-68
2022/03/09 02:31:48;;;;;;;12.80;4.30;;;1.70;99.90;;;;;;5069009;28;20646;-68
2022/03/09 02:34:15;;;;;;;6.73;3.80;;;1.70;99.90;;;;;;5061494;28;20727;-67
2022/03/09 02:36:41;;;;;;;5.10;3.57;;;1.80;99.90;;;;;;5062377;28;20487;-68
2022/03/09 02:39:08;;;;;;;15.30;5.13;;;1.80;99.90;;;;;;5068169;28;20982;-68
2022/03/09 02:41:36;;;;;;;5.00;4.03;;;1.90;99.90;;;;;;5063622;28;20688;-68
2022/03/09 02:44:04;;;;;;;8.67;5.60;;;1.90;99.90;;;;;;5056946;28;20454;-68
2022/03/09 02:46:31;;;;;;;5.63;4.20;;;1.90;99.90;;;;;;5063458;28;20594;-68
2022/03/09 02:48:58;;;;;;;8.47;4.50;;;2.00;99.90;;;;;;5064805;28;20480;-68
2022/03/09 02:51:25;;;;;;;8.63;4.93;;;2.00;99.90;;;;;;5062089;28;20440;-68
2022/03/09 02:53:51;;;;;;;8.17;5.40;;;1.80;99.90;;;;;;5064094;28;20549;-68
2022/03/09 02:56:18;;;;;;;6.20;3.50;;;1.80;99.90;;;;;;5065268;28;20654;-68
2022/03/09 02:58:47;;;;;;;6.17;3.40;;;1.60;99.90;;;;;;5063153;28;20508;-68
2022/03/09 03:01:14;;;;;;;4.07;3.67;;;1.60;99.90;;;;;;5059022;28;22077;-68
2022/03/09 03:03:41;;;;;;;7.77;5.83;;;1.60;99.90;;;;;;5062434;27;20447;-68
2022/03/09 03:06:08;;;;;;;8.33;3.97;;;1.80;99.90;;;;;;5065388;28;21027;-68
2022/03/09 03:08:35;;;;;;;6.13;4.60;;;1.80;99.90;;;;;;5059409;28;22139;-69
2022/03/09 03:11:02;;;;;;;6.47;4.30;;;1.70;99.90;;;;;;5064052;28;20506;-68
2022/03/09 03:13:29;;;;;;;5.97;3.60;;;1.60;99.90;;;;;;5066424;28;21505;-69
2022/03/09 03:15:57;;;;;;;6.83;4.13;;;1.60;99.90;;;;;;5064835;28;20544;-69
2022/03/09 03:18:24;;;;;;;5.03;4.03;;;1.50;99.90;;;;;;5057331;28;20455;-68
2022/03/09 03:20:54;;;;;;;3.30;3.00;;;1.70;99.90;;;;;;5067211;27;20467;-68
2022/03/09 03:23:24;;;;;;;10.80;4.20;;;1.60;99.90;;;;;;5071878;28;20480;-69
2022/03/09 03:25:50;;;;;;;5.27;3.60;;;1.60;99.90;;;;;;5073960;28;21074;-69
2022/03/09 03:28:18;;;;;;;3.40;3.00;;;1.50;99.90;;;;;;5064936;28;21138;-68
2022/03/09 03:30:47;;;;;;;4.13;3.60;;;1.30;99.90;;;;;;5063675;28;20540;-68
2022/03/09 03:33:17;;;;;;;6.50;4.03;;;1.30;99.90;;;;;;5064272;27;20879;-68
2022/03/09 03:35:45;;;;;;;10.47;4.93;;;1.30;99.90;;;;;;5065516;28;20468;-68
2022/03/09 03:38:12;;;;;;;3.37;2.70;;;1.20;99.90;;;;;;5064013;27;21103;-68
2022/03/09 03:40:39;;;;;;;8.63;4.03;;;1.30;99.90;;;;;;5059649;28;20882;-68
2022/03/09 03:43:07;;;;;;;13.50;4.57;;;1.20;99.90;;;;;;5059168;27;20556;-68
2022/03/09 03:45:34;;;;;;;5.20;3.53;;;1.20;99.90;;;;;;5066968;28;21080;-68
2022/03/09 03:48:01;;;;;;;8.13;4.37;;;1.10;99.90;;;;;;5071989;28;20477;-68
2022/03/09 03:50:29;;;;;;;6.30;3.97;;;1.10;99.90;;;;;;5068624;28;20497;-68
2022/03/09 03:52:55;;;;;;;7.27;4.27;;;1.20;99.90;;;;;;5065006;28;20577;-68
2022/03/09 03:55:22;;;;;;;6.40;3.83;;;1.00;99.90;;;;;;5065064;28;20447;-68
2022/03/09 03:57:49;;;;;;;4.00;3.57;;;0.90;99.90;;;;;;5063129;28;20989;-68
2022/03/09 04:00:17;;;;;;;7.03;6.33;;;0.90;99.90;;;;;;5059079;27;20528;-69
2022/03/09 04:02:43;;;;;;;7.90;4.40;;;0.90;99.90;;;;;;5066542;28;20459;-70
2022/03/09 04:05:10;;;;;;;4.63;3.60;;;1.00;99.90;;;;;;5053674;28;20552;-69
2022/03/09 04:07:38;;;;;;;5.83;4.57;;;1.00;99.90;;;;;;5064090;28;20482;-70
2022/03/09 04:10:06;;;;;;;7.60;4.63;;;1.00;99.90;;;;;;5065511;28;20575;-69
2022/03/09 04:12:32;;;;;;;6.43;3.83;;;1.00;99.90;;;;;;5051185;28;20889;-69
2022/03/09 04:14:59;;;;;;;4.53;3.77;;;1.00;99.90;;;;;;5062418;28;20710;-69
2022/03/09 04:17:26;;;;;;;6.07;4.77;;;0.90;99.90;;;;;;5057718;28;20535;-70
2022/03/09 04:19:52;;;;;;;4.67;3.27;;;0.80;99.90;;;;;;5067473;28;20464;-68
2022/03/09 04:22:19;;;;;;;4.87;3.30;;;0.90;99.90;;;;;;5064027;28;20521;-69
2022/03/09 04:24:47;;;;;;;7.20;3.57;;;1.00;99.90;;;;;;5060722;28;21414;-69
2022/03/09 04:27:14;;;;;;;4.80;3.43;;;0.90;99.90;;;;;;5066261;28;20481;-68
2022/03/09 04:29:40;;;;;;;3.43;3.23;;;1.00;99.90;;;;;;5065653;28;20547;-69
2022/03/09 04:32:08;;;;;;;10.13;4.30;;;1.00;99.90;;;;;;5056349;28;22110;-69
2022/03/09 04:34:35;;;;;;;8.13;5.13;;;1.00;99.90;;;;;;5070310;28;20449;-69
2022/03/09 04:37:01;;;;;;;8.30;5.23;;;0.90;99.90;;;;;;5061667;28;21266;-70
2022/03/09 04:39:28;;;;;;;5.60;3.60;;;0.80;99.90;;;;;;5058566;28;20460;-69
2022/03/09 04:41:57;;;;;;;7.13;3.23;;;0.70;99.90;;;;;;5066485;28;20506;-69
2022/03/09 04:44:23;;;;;;;6.97;2.90;;;0.80;99.90;;;;;;5057911;28;21342;-69
2022/03/09 04:46:50;;;;;;;7.20;5.00;;;0.80;99.90;;;;;;5055832;28;20547;-69
2022/03/09 04:49:17;;;;;;;5.30;4.40;;;0.80;99.90;;;;;;5062000;28;20892;-70
2022/03/09 04:51:44;;;;;;;6.20;4.67;;;1.00;99.90;;;;;;5063414;28;20677;-69
2022/03/09 04:54:11;;;;;;;14.77;5.00;;;1.00;99.90;;;;;;5059044;28;20461;-69
2022/03/09 04:56:37;;;;;;;11.33;5.70;;;1.10;99.90;;;;;;5055187;28;20565;-70
2022/03/09 04:59:06;;;;;;;8.33;4.13;;;0.90;99.90;;;;;;5054234;28;20552;-70
2022/03/09 05:01:54;;;;;;;10.13;4.37;;;0.90;99.90;;;;;;5061415;28;20463;-69
2022/03/09 05:04:21;;;;;;;13.07;6.23;;;0.80;99.90;;;;;;5050884;28;20938;-69
2022/03/09 05:06:48;;;;;;;4.53;3.33;;;0.80;99.90;;;;;;5051277;28;21258;-69
2022/03/09 05:09:14;;;;;;;5.53;3.17;;;0.80;99.90;;;;;;5061514;28;22744;-68
2022/03/09 05:11:41;;;;;;;6.93;4.03;;;0.70;99.90;;;;;;5050542;28;20825;-66
2022/03/09 05:17:21;;;;;;;3.83;3.47;;;0.50;99.90;;;;;;5033171;28;20465;-64
2022/03/09 05:19:48;;;;;;;7.00;3.80;;;0.50;99.90;;;;;;5057878;28;21015;-65
2022/03/09 05:22:14;;;;;;;7.37;3.93;;;0.50;99.90;;;;;;5060962;28;20895;-65
2022/03/09 05:24:41;;;;;;;7.10;4.20;;;0.60;99.90;;;;;;5062011;28;20660;-67
2022/03/09 05:27:09;;;;;;;8.70;5.47;;;0.60;99.90;;;;;;5071715;28;20561;-67
2022/03/09 05:29:37;;;;;;;9.70;5.20;;;0.60;99.90;;;;;;5057839;28;20468;-68
2022/03/09 05:32:04;;;;;;;5.67;4.50;;;0.40;99.90;;;;;;5061431;28;20462;-67
2022/03/09 05:34:31;;;;;;;5.80;3.93;;;0.50;99.90;;;;;;5069795;28;20810;-67
2022/03/09 05:36:58;;;;;;;4.00;3.13;;;0.60;99.90;;;;;;5074426;28;20507;-67
2022/03/09 05:39:24;;;;;;;4.77;2.33;;;0.50;99.90;;;;;;5068800;28;20435;-68
2022/03/09 05:45:24;;;;;;;2.40;2.20;;;0.30;99.90;;;;;;5058820;28;20428;-68
2022/03/09 05:47:50;;;;;;;14.80;4.60;;;0.30;99.90;;;;;;5057734;28;20484;-66
2022/03/09 05:50:18;;;;;;;3.30;3.00;;;0.40;99.90;;;;;;5061264;28;20970;-66
2022/03/09 05:52:44;;;;;;;11.40;4.47;;;0.40;99.90;;;;;;5064236;27;21038;-69
2022/03/09 05:55:11;;;;;;;8.00;4.70;;;0.50;99.90;;;;;;5074406;28;20456;-68
2022/03/09 05:57:38;;;;;;;7.53;5.60;;;0.50;99.90;;;;;;5074626;28;20713;-67
2022/03/09 06:00:07;;;;;;;5.40;4.90;;;0.50;99.90;;;;;;5072851;28;21179;-67
2022/03/09 06:02:37;;;;;;;5.10;4.17;;;0.40;99.90;;;;;;5081425;28;20464;-68
2022/03/09 06:05:08;;;;;;;4.00;3.03;;;0.40;99.90;;;;;;5075485;28;20466;-68
2022/03/09 06:07:34;;;;;;;13.37;6.00;;;0.40;99.90;;;;;;5082903;27;20489;-68
2022/03/09 06:10:01;;;;;;;6.03;4.30;;;0.40;99.90;;;;;;5082954;27;20481;-68
2022/03/09 06:12:28;;;;;;;11.77;5.13;;;0.40;99.90;;;;;;5081059;28;21809;-67
2022/03/09 06:14:55;;;;;;;5.67;4.63;;;0.50;99.90;;;;;;5072409;27;20543;-69
2022/03/09 06:17:22;;;;;;;11.37;6.23;;;0.50;99.90;;;;;;5081763;28;21094;-68
2022/03/09 06:19:49;;;;;;;6.93;3.93;;;0.50;99.90;;;;;;5079288;28;20536;-68
2022/03/09 06:22:16;;;;;;;6.40;4.70;;;0.70;99.90;;;;;;5079066;28;20974;-69
2022/03/09 06:24:43;;;;;;;6.03;2.93;;;0.90;99.90;;;;;;5079698;28;20457;-68
2022/03/09 06:27:09;;;;;;;15.63;3.97;;;1.10;99.90;;;;;;5077346;28;20611;-69
2022/03/09 06:29:36;;;;;;;19.53;5.90;;;1.20;99.90;;;;;;5085177;28;20433;-68
2022/03/09 06:32:04;;;;;;;12.20;5.97;;;1.10;99.90;;;;;;5090726;28;20457;-70
2022/03/09 06:34:30;;;;;;;9.93;5.17;;;1.10;99.90;;;;;;5094125;28;20550;-67
2022/03/09 06:36:58;;;;;;;11.70;5.27;;;1.30;99.90;;;;;;5081271;28;20514;-69
2022/03/09 06:39:25;;;;;;;5.70;4.80;;;1.50;99.90;;;;;;5082009;28;20912;-69
2022/03/09 06:41:52;;;;;;;11.30;5.43;;;1.60;99.90;;;;;;5084793;28;20458;-68
2022/03/09 06:44:18;;;;;;;9.67;4.63;;;1.90;99.90;;;;;;5087382;28;20544;-69
2022/03/09 06:46:45;;;;;;;7.57;4.30;;;2.10;99.90;;;;;;5079633;28;20865;-68
2022/03/09 06:49:12;;;;;;;4.47;3.80;;;2.40;99.90;;;;;;5080969;28;20582;-67
2022/03/09 06:51:38;;;;;;;7.73;4.00;;;2.60;99.90;;;;;;5078960;28;20580;-67
2022/03/09 06:54:06;;;;;;;10.47;5.10;;;2.50;99.90;;;;;;5070367;28;20458;-65
2022/03/09 06:56:33;;;;;;;9.23;4.43;;;2.60;99.90;;;;;;5072135;28;20457;-67
2022/03/09 06:58:59;;;;;;;6.93;4.63;;;2.90;99.90;;;;;;5073901;28;20601;-68
2022/03/09 07:01:26;;;;;;;6.93;5.33;;;3.00;99.90;;;;;;5074892;28;20444;-68
2022/03/09 07:03:53;;;;;;;10.00;6.20;;;3.00;99.90;;;;;;5069825;28;21020;-67
2022/03/09 07:06:21;;;;;;;7.97;6.40;;;3.00;99.90;;;;;;5076121;28;20482;-66
2022/03/09 07:08:48;;;;;;;8.10;4.87;;;3.10;99.90;;;;;;5078114;28;20476;-67
2022/03/09 07:11:16;;;;;;;7.00;4.83;;;3.10;99.90;;;;;;5076455;28;20456;-67
2022/03/09 07:13:43;;;;;;;19.97;7.10;;;3.00;99.90;;;;;;5074147;28;20500;-67
2022/03/09 07:16:09;;;;;;;9.17;5.47;;;2.90;99.90;;;;;;5072843;28;20842;-69
2022/03/09 07:18:36;;;;;;;9.10;6.30;;;3.00;99.90;;;;;;5071435;28;20882;-69
2022/03/09 07:21:03;;;;;;;12.43;5.30;;;3.20;99.90;;;;;;5078133;28;20954;-71
2022/03/09 07:23:30;;;;;;;11.40;6.43;;;3.30;99.90;;;;;;5088703;28;20515;-68
2022/03/09 07:25:56;;;;;;;14.73;6.10;;;3.30;99.90;;;;;;5082542;28;20536;-70
2022/03/09 07:28:24;;;;;;;7.83;4.73;;;3.40;99.90;;;;;;5084677;28;20481;-69
2022/03/09 07:30:51;;;;;;;11.43;4.70;;;3.60;99.90;;;;;;5084293;28;20497;-68
2022/03/09 07:33:18;;;;;;;9.03;5.17;;;3.80;99.90;;;;;;5087115;28;20508;-67
2022/03/09 07:35:45;;;;;;;18.67;10.37;;;4.00;99.90;;;;;;5089507;28;20499;-68
2022/03/09 07:38:13;;;;;;;10.73;5.60;;;4.30;99.90;;;;;;5075727;28;20451;-68
2022/03/09 07:40:39;;;;;;;13.50;4.97;;;4.50;99.90;;;;;;5073246;28;20837;-69
2022/03/09 07:43:06;;;;;;;6.23;3.80;;;5.00;99.90;;;;;;5069268;28;21041;-66
2022/03/09 07:45:34;;;;;;;7.13;3.90;;;5.60;99.90;;;;;;5073431;28;20625;-66
2022/03/09 07:48:01;;;;;;;11.30;4.33;;;6.00;99.90;;;;;;5076752;28;20464;-65
2022/03/09 07:50:27;;;;;;;8.50;4.07;;;6.10;99.90;;;;;;5084234;28;20542;-67
2022/03/09 07:52:54;;;;;;;7.17;4.50;;;6.30;99.90;;;;;;5084847;28;20428;-68
2022/03/09 07:55:21;;;;;;;9.70;5.37;;;6.50;99.90;;;;;;5078273;28;20487;-67
2022/03/09 07:57:47;;;;;;;7.73;4.80;;;6.70;99.50;;;;;;5074625;28;20484;-66
2022/03/09 08:00:15;;;;;;;4.63;2.60;;;6.90;98.60;;;;;;5076736;28;20479;-65
2022/03/09 08:02:44;;;;;;;10.17;3.80;;;6.80;97.10;;;;;;5071323;28;20532;-66
2022/03/09 08:05:11;;;;;;;7.40;3.57;;;6.60;96.50;;;;;;5069219;28;20440;-66
2022/03/09 08:07:40;;;;;;;4.80;2.93;;;6.70;97.50;;;;;;5073409;28;20463;-65
2022/03/09 08:10:09;;;;;;;5.20;3.60;;;7.00;97.20;;;;;;5071608;28;20485;-66
2022/03/09 08:12:35;;;;;;;8.10;6.27;;;7.40;96.70;;;;;;5066119;28;20436;-66
2022/03/09 08:15:02;;;;;;;3.60;2.20;;;7.70;96.00;;;;;;5072145;28;21160;-67
2022/03/09 08:17:29;;;;;;;25.97;12.83;;;7.60;93.50;;;;;;5069838;28;20746;-67
2022/03/09 08:19:57;;;;;;;6.57;4.80;;;7.70;93.80;;;;;;5069145;28;20435;-66
2022/03/09 08:22:24;;;;;;;7.43;4.10;;;8.30;92.80;;;;;;5070158;28;20672;-68
2022/03/09 08:24:51;;;;;;;9.00;3.83;;;8.60;91.00;;;;;;5074278;28;21066;-67
2022/03/09 08:27:17;;;;;;;7.33;3.63;;;8.70;89.30;;;;;;5069900;28;22180;-66
2022/03/09 08:29:44;;;;;;;6.23;2.97;;;8.90;88.20;;;;;;5073707;28;20622;-65
2022/03/09 08:32:11;;;;;;;6.70;3.77;;;9.20;85.90;;;;;;5073646;28;20432;-67
2022/03/09 08:34:38;;;;;;;9.63;4.63;;;10.00;84.10;;;;;;5065019;28;20457;-66
2022/03/09 08:37:06;;;;;;;9.13;4.63;;;10.80;79.00;;;;;;5066294;28;20673;-66
2022/03/09 08:39:33;;;;;;;12.43;4.57;;;11.50;75.20;;;;;;5066125;28;20461;-66
2022/03/09 08:41:59;;;;;;;11.40;6.33;;;12.20;72.70;;;;;;5067872;28;20454;-67
2022/03/09 08:44:26;;;;;;;5.67;4.30;;;13.80;66.40;;;;;;5069493;28;20523;-68
2022/03/09 08:46:53;;;;;;;10.30;5.20;;;14.40;58.90;;;;;;5066247;28;22534;-67
2022/03/09 08:49:20;;;;;;;8.77;4.47;;;14.70;57.40;;;;;;5067766;28;20934;-67
2022/03/09 08:51:47;;;;;;;6.07;3.83;;;15.20;55.90;;;;;;5070679;28;20457;-66
2022/03/09 08:54:15;;;;;;;7.43;4.40;;;15.90;52.10;;;;;;5066993;28;20565;-66
2022/03/09 08:56:42;;;;;;;9.60;4.53;;;16.10;51.50;;;;;;5071741;28;20527;-67
2022/03/09 08:59:09;;;;;;;17.57;6.13;;;16.10;50.00;;;;;;5065526;28;20906;-66
2022/03/09 09:01:35;;;;;;;8.33;4.27;;;16.40;49.80;;;;;;5069020;28;20558;-65
2022/03/09 09:04:02;;;;;;;6.97;5.30;;;16.80;48.40;;;;;;5073412;28;20492;-66
2022/03/09 09:06:29;;;;;;;7.90;5.53;;;17.60;47.20;;;;;;5063689;28;20462;-67
2022/03/09 09:08:55;;;;;;;13.30;5.30;;;18.50;44.60;;;;;;5069923;28;20490;-66
2022/03/09 09:11:24;;;;;;;5.87;4.40;;;19.40;45.70;;;;;;5072943;28;22094;-67
2022/03/09 09:13:50;;;;;;;6.30;5.40;;;20.20;43.50;;;;;;5071690;28;20966;-68
2022/03/09 09:16:17;;;;;;;6.90;4.63;;;19.80;41.20;;;;;;5090458;28;20471;-66
2022/03/09 09:18:44;;;;;;;6.37;5.03;;;19.20;41.90;;;;;;5082431;28;20617;-66
2022/03/09 09:21:11;;;;;;;6.40;4.10;;;19.00;40.70;;;;;;5080781;28;20473;-66
2022/03/09 09:23:39;;;;;;;9.50;4.87;;;18.30;40.30;;;;;;5068881;28;20511;-67
2022/03/09 09:26:06;;;;;;;7.20;4.80;;;18.20;40.70;;;;;;5076170;28;20461;-67
2022/03/09 09:28:34;;;;;;;6.57;4.60;;;18.90;41.00;;;;;;5073560;28;20496;-66
2022/03/09 09:31:01;;;;;;;13.30;5.93;;;19.60;39.60;;;;;;5074174;28;20636;-67
2022/03/09 09:33:28;;;;;;;13.00;6.40;;;20.20;38.80;;;;;;5074765;28;20969;-67
2022/03/09 09:35:55;;;;;;;6.77;5.20;;;20.90;39.70;;;;;;5074212;28;20450;-66
2022/03/09 09:38:21;;;;;;;7.60;5.97;;;20.90;36.20;;;;;;5071807;28;20656;-66
2022/03/09 09:40:51;;;;;;;8.93;6.40;;;20.70;36.60;;;;;;5075871;28;20466;-66
2022/03/09 09:43:17;;;;;;;7.83;3.57;;;21.80;36.20;;;;;;5075635;28;20472;-68
2022/03/09 09:45:45;;;;;;;8.50;4.50;;;21.10;33.20;;;;;;5073187;28;20468;-67
2022/03/09 09:48:13;;;;;;;6.60;4.90;;;20.40;34.40;;;;;;5077232;28;20526;-68
2022/03/09 09:50:41;;;;;;;5.70;4.00;;;20.50;33.40;;;;;;5077426;28;20544;-67
2022/03/09 09:53:10;;;;;;;11.20;4.83;;;21.00;33.00;;;;;;5076220;28;20522;-65
2022/03/09 09:55:36;;;;;;;5.83;4.30;;;20.60;32.40;;;;;;5074154;28;20458;-67
2022/03/09 09:58:04;;;;;;;5.47;4.23;;;20.70;32.70;;;;;;5074269;28;20508;-66
2022/03/09 10:00:31;;;;;;;7.00;4.40;;;20.90;32.30;;;;;;5087899;28;20623;-66
2022/03/09 10:02:59;;;;;;;4.40;3.90;;;21.30;32.30;;;;;;5086410;28;20491;-65
2022/03/09 10:05:26;;;;;;;6.60;5.80;;;21.60;31.80;;;;;;5082681;28;20461;-67
2022/03/09 10:08:18;;;;;;;6.30;4.20;;;22.50;32.20;;;;;;5074008;27;20493;-67
2022/03/09 10:10:54;;;;;;;5.00;3.90;;;22.70;30.70;;;;;;5079025;28;20817;-67
2022/03/09 10:13:22;;;;;;;5.47;4.30;;;22.50;30.50;;;;;;5073933;28;20466;-67
2022/03/09 10:16:07;;;;;;;5.57;3.83;;;22.60;30.60;;;;;;5083624;28;21183;-66
2022/03/09 10:18:36;;;;;;;6.50;4.80;;;22.90;30.20;;;;;;5091418;28;20537;-66
2022/03/09 10:21:11;;;;;;;6.80;4.47;;;23.30;31.00;;;;;;5079393;28;20467;-66
2022/03/09 10:23:52;;;;;;;3.80;3.43;;;23.80;30.60;;;;;;5078577;28;21577;-67
2022/03/09 10:26:19;;;;;;;9.43;4.83;;;23.40;29.30;;;;;;5076021;28;20578;-67
2022/03/09 10:28:56;;;;;;;14.93;4.23;;;22.60;29.40;;;;;;5074075;28;20496;-67
2022/03/09 10:31:37;;;;;;;5.90;4.23;;;23.10;29.60;;;;;;5082554;28;20581;-67
2022/03/09 10:34:07;;;;;;;6.87;4.83;;;22.80;29.40;;;;;;5084756;28;20482;-68
2022/03/09 10:36:34;;;;;;;5.73;5.00;;;22.70;29.90;;;;;;5084885;28;20834;-67
2022/03/09 10:39:14;;;;;;;7.50;4.67;;;22.90;29.50;;;;;;5073222;28;20484;-65
2022/03/09 10:41:40;;;;;;;7.30;4.27;;;23.40;29.20;;;;;;5076332;27;20897;-66
2022/03/09 10:44:07;;;;;;;4.20;3.73;;;23.50;28.70;;;;;;5077025;28;21168;-66
2022/03/09 10:46:43;;;;;;;6.03;4.47;;;23.50;28.10;;;;;;5071444;28;20523;-66
2022/03/09 10:49:13;;;;;;;7.50;5.03;;;23.10;28.40;;;;;;5085481;28;20473;-65
2022/03/09 10:51:42;;;;;;;7.40;4.17;;;22.30;28.60;;;;;;5084902;28;20891;-67
2022/03/09 10:54:12;;;;;;;5.43;4.57;;;21.60;28.80;;;;;;5082178;28;22047;-67
2022/03/09 11:03:24;;;;;;;6.03;4.33;;;23.50;29.50;;;;;;5070630;28;20498;-66
2022/03/09 11:05:55;;;;;;;7.00;4.80;;;24.20;28.90;;;;;;5073695;28;20690;-66
2022/03/09 11:08:23;;;;;;;9.00;4.93;;;24.20;28.40;;;;;;5077188;28;20520;-65
2022/03/09 11:10:51;;;;;;;8.70;5.07;;;24.30;28.20;;;;;;5073341;28;21087;-66
2022/03/09 11:13:18;;;;;;;4.33;3.93;;;24.10;28.00;;;;;;5076423;28;20909;-66
2022/03/09 11:15:47;;;;;;;6.07;4.50;;;23.90;27.90;;;;;;5075459;28;20497;-66
2022/03/09 11:18:18;;;;;;;5.20;4.20;;;23.20;28.10;;;;;;5073131;28;20557;-66
2022/03/09 11:20:45;;;;;;;6.30;5.63;;;23.60;29.20;;;;;;5077667;28;20920;-68
2022/03/09 11:23:14;;;;;;;5.13;4.43;;;24.40;29.60;;;;;;5073187;28;20476;-67
2022/03/09 11:25:44;;;;;;;8.00;4.90;;;24.90;28.70;;;;;;5073836;28;20469;-66
2022/03/09 11:28:12;;;;;;;6.07;5.17;;;25.60;28.30;;;;;;5074521;28;21455;-66
2022/03/09 11:30:53;;;;;;;6.40;4.60;;;25.80;27.30;;;;;;5078732;28;20892;-67
2022/03/09 11:33:35;;;;;;;6.30;4.87;;;25.30;26.80;;;;;;5076047;28;20535;-68
2022/03/09 11:36:02;;;;;;;6.47;5.40;;;25.20;28.30;;;;;;5093250;28;20506;-67
2022/03/09 11:38:43;;;;;;;4.50;4.07;;;26.10;27.60;;;;;;5090777;28;20576;-66
2022/03/09 11:41:23;;;;;;;14.77;4.70;;;26.10;27.80;;;;;;5088848;28;20456;-67
2022/03/09 11:43:51;;;;;;;6.07;4.83;;;26.60;26.50;;;;;;5072141;28;20469;-66
2022/03/09 11:46:18;;;;;;;6.83;5.43;;;25.90;26.50;;;;;;5074333;28;20461;-67
2022/03/09 11:48:53;;;;;;;20.73;5.50;;;26.30;27.40;;;;;;5076724;28;20564;-67
2022/03/09 11:51:20;;;;;;;5.33;4.20;;;26.70;27.20;;;;;;5081967;28;20452;-68
2022/03/09 11:53:53;;;;;;;6.30;4.63;;;26.30;26.80;;;;;;5085370;28;20461;-68
2022/03/09 11:56:35;;;;;;;6.17;4.00;;;26.00;26.10;;;;;;5088570;28;20453;-67
2022/03/09 11:59:13;;;;;;;5.23;4.00;;;25.20;26.40;;;;;;5085488;28;20508;-68
2022/03/09 12:02:12;;;;;;;7.20;4.80;;;25.10;27.10;;;;;;5083542;28;20456;-67
2022/03/09 12:04:59;;;;;;;5.57;4.60;;;25.00;26.90;;;;;;5084219;28;20445;-67
2022/03/09 12:07:49;;;;;;;9.37;5.20;;;25.80;27.10;;;;;;5081235;28;20696;-66
2022/03/09 12:10:18;;;;;;;6.60;5.33;;;26.00;26.50;;;;;;5079832;28;20814;-67
2022/03/09 12:13:11;;;;;;;7.13;5.90;;;27.10;27.10;;;;;;5073188;28;20467;-67
2022/03/09 12:16:12;;;;;;;6.60;4.97;;;27.10;26.30;;;;;;5076353;28;20457;-67
2022/03/09 12:25:38;;;;;;;5.50;4.90;;;26.00;26.00;;;;;;5065787;28;20456;-67
2022/03/09 12:31:29;;;;;;;10.30;5.23;;;26.80;25.80;;;;;;5065382;28;20433;-68
2022/03/09 12:33:56;;;;;;;7.23;4.87;;;27.50;26.70;;;;;;5074425;28;20965;-67
2022/03/09 12:36:25;;;;;;;5.87;4.33;;;28.00;26.60;;;;;;5072954;28;20465;-66
2022/03/09 12:38:54;;;;;;;12.30;6.33;;;27.10;25.70;;;;;;5071618;28;20474;-68
2022/03/09 12:41:26;;;;;;;7.83;5.30;;;26.60;26.10;;;;;;5074097;28;21793;-67
2022/03/09 12:43:55;;;;;;;6.43;5.33;;;26.80;25.70;;;;;;5072366;28;20539;-66
2022/03/09 12:46:22;;;;;;;6.53;4.67;;;27.40;26.70;;;;;;5075691;28;20509;-68
2022/03/09 12:48:49;;;;;;;8.83;6.27;;;27.40;25.80;;;;;;5081222;28;20575;-68
2022/03/09 12:51:16;;;;;;;7.93;4.63;;;27.50;26.20;;;;;;5090103;28;20968;-67
2022/03/09 12:53:44;;;;;;;6.70;4.83;;;27.60;25.50;;;;;;5088561;28;20508;-66
2022/03/09 12:56:15;;;;;;;5.57;5.00;;;28.00;26.20;;;;;;5076773;28;20465;-67
2022/03/09 12:58:43;;;;;;;15.13;5.87;;;28.40;25.00;;;;;;5071731;28;20484;-66
2022/03/09 13:01:12;;;;;;;6.53;5.80;;;27.90;25.80;;;;;;5078423;28;21069;-67
2022/03/09 13:03:40;;;;;;;7.70;5.20;;;27.60;25.30;;;;;;5082686;28;20553;-65
2022/03/09 13:06:07;;;;;;;6.90;6.20;;;27.70;25.60;;;;;;5083861;28;20458;-67
2022/03/09 13:08:35;;;;;;;6.40;4.93;;;26.10;25.60;;;;;;5088698;28;20481;-67
2022/03/09 13:11:04;;;;;;;7.60;4.30;;;26.10;26.10;;;;;;5091273;28;20462;-66
2022/03/09 13:13:32;;;;;;;8.00;4.60;;;27.50;25.70;;;;;;5082336;28;20454;-67
2022/03/09 13:16:00;;;;;;;6.27;4.63;;;27.60;25.90;;;;;;5081388;28;20461;-68
2022/03/09 13:18:32;;;;;;;5.90;4.43;;;27.50;25.50;;;;;;5077717;28;20469;-68
2022/03/09 13:20:59;;;;;;;16.73;5.60;;;27.90;25.30;;;;;;5074738;28;20464;-68
2022/03/09 13:23:30;;;;;;;5.67;5.07;;;27.40;25.30;;;;;;5075845;28;20522;-68